createdAt,value
2018-08-19T00:00:20.224Z,17
2018-08-19T00:05:23.178Z,16.9
2018-08-19T00:10:23.821Z,16.799999
2018-08-19T00:15:25.990Z,16.799999
2018-08-19T00:20:28.440Z,16.6
2018-08-19T00:25:30.726Z,16.6
2018-08-19T00:30:32.915Z,16.5
2018-08-19T00:35:35.247Z,16.4
2018-08-19T00:40:37.617Z,16.4
2018-08-19T00:45:39.733Z,16.299999
2018-08-19T00:50:42.110Z,16.200001
2018-08-19T00:55:44.442Z,16.1
2018-08-19T01:00:46.716Z,16.1
2018-08-19T01:05:48.970Z,16.1
2018-08-19T01:10:51.272Z,16
2018-08-19T01:15:53.565Z,15.9
2018-08-19T01:20:55.943Z,15.9
2018-08-19T01:25:58.179Z,15.8
2018-08-19T01:31:00.454Z,15.7
2018-08-19T01:36:02.671Z,15.7
2018-08-19T01:41:06.237Z,15.6
2018-08-19T01:46:07.339Z,15.6
2018-08-19T01:51:09.741Z,15.5
2018-08-19T01:56:11.982Z,15.5
2018-08-19T02:01:14.280Z,15.4
2018-08-19T02:06:16.600Z,15.4
2018-08-19T02:11:18.896Z,15.3
2018-08-19T02:16:21.240Z,15.3
2018-08-19T02:21:23.637Z,15.2
2018-08-19T02:26:25.690Z,15.2
2018-08-19T02:31:27.997Z,15.1
2018-08-19T02:36:30.193Z,15
2018-08-19T02:41:32.768Z,15
2018-08-19T02:46:35.020Z,15
2018-08-19T02:51:37.112Z,15
2018-08-19T02:56:40.707Z,14.9
2018-08-19T03:01:41.725Z,14.9
2018-08-19T03:06:44.091Z,14.8
2018-08-19T03:11:48.153Z,14.8
2018-08-19T03:16:48.636Z,14.8
2018-08-19T03:21:50.988Z,14.8
2018-08-19T03:26:53.161Z,14.7
2018-08-19T03:31:55.480Z,14.7
2018-08-19T03:36:57.768Z,14.6
2018-08-19T03:42:00.088Z,14.6
2018-08-19T03:47:02.494Z,14.7
2018-08-19T03:52:04.922Z,14.7
2018-08-19T03:57:07.059Z,14.7
2018-08-19T04:02:09.200Z,14.7
2018-08-19T04:07:12.613Z,14.7
2018-08-19T04:12:15.158Z,14.8
2018-08-19T04:17:16.077Z,14.8
2018-08-19T04:22:18.576Z,14.8
2018-08-19T04:27:22.128Z,14.9
2018-08-19T04:32:23.105Z,14.9
2018-08-19T04:37:25.269Z,14.9
2018-08-19T04:42:27.801Z,14.9
2018-08-19T04:47:29.937Z,14.9
2018-08-19T04:52:32.281Z,15
2018-08-19T04:57:34.794Z,15
2018-08-19T05:02:36.862Z,15
2018-08-19T05:07:40.540Z,15
2018-08-19T05:12:41.357Z,15.1
2018-08-19T05:17:43.672Z,15.1
2018-08-19T05:22:45.945Z,15.2
2018-08-19T05:27:48.294Z,15.2
2018-08-19T05:32:50.654Z,15.3
2018-08-19T05:37:52.929Z,15.4
2018-08-19T05:42:55.227Z,15.4
2018-08-19T05:47:57.480Z,15.5
2018-08-19T05:52:59.790Z,15.6
2018-08-19T05:58:02.069Z,15.7
2018-08-19T06:03:04.495Z,15.8
2018-08-19T06:08:06.632Z,15.9
2018-08-19T06:13:08.975Z,15.9
2018-08-19T06:18:11.216Z,16
2018-08-19T06:23:13.557Z,16.1
2018-08-19T06:28:15.972Z,16.1
2018-08-19T06:33:18.180Z,16.200001
2018-08-19T06:38:20.451Z,16.299999
2018-08-19T06:43:22.749Z,16.4
2018-08-19T06:48:25.014Z,16.5
2018-08-19T06:53:27.330Z,16.6
2018-08-19T06:58:29.596Z,16.700001
2018-08-19T07:03:32.029Z,16.799999
2018-08-19T07:08:34.094Z,16.9
2018-08-19T07:13:36.465Z,17.1
2018-08-19T07:18:38.823Z,17.200001
2018-08-19T07:23:41.254Z,17.299999
2018-08-19T07:28:43.354Z,17.5
2018-08-19T07:33:45.580Z,17.700001
2018-08-19T07:38:47.924Z,18
2018-08-19T07:43:50.272Z,18.1
2018-08-19T07:48:52.495Z,18.5
2018-08-19T07:53:54.765Z,18.700001
2018-08-19T07:58:57.134Z,18.6
2018-08-19T08:04:00.536Z,18.799999
2018-08-19T08:09:01.731Z,19.200001
2018-08-19T08:14:03.964Z,19.6
2018-08-19T08:19:06.299Z,19.9
2018-08-19T08:24:08.717Z,19.9
2018-08-19T08:29:11.316Z,19.799999
2018-08-19T08:34:13.267Z,19.9
2018-08-19T08:39:15.696Z,20
2018-08-19T08:44:17.775Z,20
2018-08-19T08:49:20.085Z,20
2018-08-19T08:54:22.339Z,19.9
2018-08-19T08:59:26.441Z,20
2018-08-19T09:04:26.898Z,19.9
2018-08-19T09:09:29.244Z,19.9
2018-08-19T09:14:31.579Z,20.1
2018-08-19T09:19:33.777Z,20.200001
2018-08-19T09:29:40.153Z,20.700001
2018-08-19T09:34:40.673Z,20.799999
2018-08-19T09:39:42.984Z,21.299999
2018-08-19T09:44:45.417Z,22
2018-08-19T09:49:47.559Z,22.200001
2018-08-19T09:54:49.910Z,21.700001
2018-08-19T09:59:52.194Z,21.5
2018-08-19T10:04:54.442Z,21.200001
2018-08-19T10:09:56.849Z,21.1
2018-08-19T10:14:59.021Z,20.9
2018-08-19T10:20:01.341Z,20.700001
2018-08-19T10:25:03.719Z,20.700001
2018-08-19T10:30:05.849Z,20.700001
2018-08-19T10:35:08.418Z,20.6
2018-08-19T10:40:10.542Z,20.6
2018-08-19T10:45:12.845Z,20.9
2018-08-19T10:50:15.084Z,21.1
2018-08-19T10:55:17.436Z,21.200001
2018-08-19T11:00:20.860Z,21.299999
2018-08-19T11:05:22.017Z,21.200001
2018-08-19T11:10:24.417Z,21.700001
2018-08-19T11:15:26.725Z,22.299999
2018-08-19T11:20:29.932Z,22.4
2018-08-19T11:25:31.458Z,22.1
2018-08-19T11:30:33.522Z,22.1
2018-08-19T11:35:35.663Z,22.5
2018-08-19T11:40:38.051Z,22.5
2018-08-19T11:45:40.318Z,23.200001
2018-08-19T11:50:42.687Z,23.5
2018-08-19T11:55:46.382Z,24.299999
2018-08-19T12:00:47.371Z,24.5
2018-08-19T12:05:49.536Z,25
2018-08-19T12:10:51.827Z,25.5
2018-08-19T12:15:54.291Z,25.5
2018-08-19T12:20:56.422Z,25.299999
2018-08-19T12:25:58.724Z,25.5
2018-08-19T12:31:00.999Z,25.5
2018-08-19T12:36:03.369Z,25.200001
2018-08-19T12:41:05.635Z,25.4
2018-08-19T12:46:07.919Z,25.700001
2018-08-19T12:51:11.356Z,25.799999
2018-08-19T12:56:12.490Z,26.200001
2018-08-19T13:01:14.834Z,26.1
2018-08-19T13:06:17.182Z,25.700001
2018-08-19T13:11:19.302Z,25.6
2018-08-19T13:16:21.680Z,24.799999
2018-08-19T13:21:24.030Z,24.799999
2018-08-19T13:26:26.247Z,25.299999
2018-08-19T13:31:28.508Z,25.799999
2018-08-19T13:36:30.847Z,26.200001
2018-08-19T13:41:33.171Z,26
2018-08-19T13:46:35.406Z,26.200001
2018-08-19T13:51:38.793Z,26.1
2018-08-19T13:56:40.546Z,26
2018-08-19T14:01:42.230Z,25.9
2018-08-19T14:06:44.730Z,26.1
2018-08-19T14:11:46.969Z,26.299999
2018-08-19T14:16:49.256Z,26.5
2018-08-19T14:21:51.545Z,26.5
2018-08-19T14:26:53.759Z,26.6
2018-08-19T14:36:58.452Z,26.4
2018-08-19T14:42:00.734Z,26.200001
2018-08-19T14:47:02.972Z,26.4
2018-08-19T14:52:05.354Z,26.9
2018-08-19T14:57:07.547Z,26.799999
2018-08-19T15:02:09.801Z,26.6
2018-08-19T15:07:12.102Z,26.6
2018-08-19T15:12:15.803Z,26.5
2018-08-19T15:17:16.852Z,26.6
2018-08-19T15:22:18.984Z,26.6
2018-08-19T15:27:21.242Z,26.6
2018-08-19T15:32:23.765Z,26.5
2018-08-19T15:37:25.898Z,26.4
2018-08-19T15:42:28.269Z,26.4
2018-08-19T15:47:30.487Z,26.6
2018-08-19T15:52:34.272Z,26.799999
2018-08-19T15:57:35.103Z,26.6
2018-08-19T16:02:37.462Z,26.4
2018-08-19T16:07:39.571Z,26.4
2018-08-19T16:12:42.049Z,26.200001
2018-08-19T16:22:46.661Z,25.700001
2018-08-19T16:27:48.798Z,25.4
2018-08-19T16:32:51.865Z,25.1
2018-08-19T16:37:53.457Z,24.700001
2018-08-19T16:42:55.760Z,24.5
2018-08-19T16:47:58.016Z,24.5
2018-08-19T16:53:00.322Z,24.4
2018-08-19T16:58:02.745Z,24.1
2018-08-19T17:03:05.199Z,23.9
2018-08-19T17:08:07.241Z,23.799999
2018-08-19T17:13:09.525Z,23.5
2018-08-19T17:18:11.877Z,23.4
2018-08-19T17:23:14.072Z,23.299999
2018-08-19T17:28:16.347Z,23.200001
2018-08-19T17:33:18.712Z,23.1
2018-08-19T17:38:22.753Z,23
2018-08-19T17:43:23.285Z,23
2018-08-19T17:48:25.595Z,23
2018-08-19T17:53:27.938Z,22.799999
2018-08-19T17:58:30.198Z,22.799999
2018-08-19T18:03:32.454Z,22.799999
2018-08-19T18:08:34.719Z,22.799999
2018-08-19T18:13:37.206Z,22.700001
2018-08-19T18:18:39.324Z,22.700001
2018-08-19T18:23:41.533Z,22.6
2018-08-19T18:28:43.924Z,22.6
2018-08-19T18:33:46.147Z,22.5
2018-08-19T18:38:49.695Z,22.4
2018-08-19T18:43:50.826Z,22.4
2018-08-19T18:48:53.128Z,22.299999
2018-08-19T18:53:55.372Z,22.200001
2018-08-19T18:58:58.732Z,22.1
2018-08-19T19:04:00.024Z,22
2018-08-19T19:09:04.048Z,21.9
2018-08-19T19:14:04.526Z,21.9
2018-08-19T19:19:06.764Z,21.799999
2018-08-19T19:24:09.175Z,21.6
2018-08-19T19:29:11.391Z,21.5
2018-08-19T19:34:13.735Z,21.299999
2018-08-19T19:39:16.218Z,21.200001
2018-08-19T19:44:18.424Z,21.1
2018-08-19T19:49:20.727Z,21
2018-08-19T19:54:22.945Z,20.9
2018-08-19T19:59:25.299Z,20.799999
2018-08-19T20:04:27.503Z,20.700001
2018-08-19T20:09:29.854Z,20.6
2018-08-19T20:14:32.564Z,20.6
2018-08-19T20:19:34.340Z,20.5
2018-08-19T20:24:36.703Z,20.5
2018-08-19T20:29:38.961Z,20.4
2018-08-19T20:34:41.226Z,20.299999
2018-08-19T20:39:43.635Z,20.299999
2018-08-19T20:44:45.902Z,20.299999
2018-08-19T20:49:48.142Z,20.200001
2018-08-19T20:54:50.440Z,20.1
2018-08-19T20:59:52.807Z,19.9
2018-08-19T21:04:55.057Z,19.799999
2018-08-19T21:09:57.378Z,19.799999
2018-08-19T21:14:59.647Z,19.700001
2018-08-19T21:20:01.889Z,19.6
2018-08-19T21:30:06.487Z,19.4
2018-08-19T21:35:08.812Z,19.299999
2018-08-19T21:40:12.183Z,19.200001
2018-08-19T21:45:13.424Z,19.200001
2018-08-19T21:50:15.694Z,19.1
2018-08-19T21:55:18.232Z,19
2018-08-19T22:00:20.183Z,19
2018-08-19T22:05:22.655Z,18.9
2018-08-19T22:10:24.932Z,18.799999
2018-08-19T22:15:27.190Z,18.799999
2018-08-19T22:20:29.358Z,18.799999
2018-08-19T22:25:31.804Z,18.700001
2018-08-19T22:30:34.064Z,18.6
2018-08-19T22:35:36.351Z,18.6
2018-08-19T22:40:38.598Z,18.5
2018-08-19T22:45:41.299Z,18.5
2018-08-19T22:50:43.311Z,18.5
2018-08-19T22:55:45.497Z,18.4
2018-08-19T23:00:50.013Z,18.4
2018-08-19T23:05:50.161Z,18.4
2018-08-19T23:10:52.423Z,18.4
2018-08-19T23:15:54.636Z,18.4
2018-08-19T23:20:57.026Z,18.4
2018-08-19T23:25:59.299Z,18.5
2018-08-19T23:31:01.511Z,18.5
2018-08-19T23:36:04.039Z,18.5
2018-08-19T23:41:06.200Z,18.5
2018-08-19T23:46:08.480Z,18.5
2018-08-19T23:51:10.775Z,18.5
2018-08-19T23:56:13.093Z,18.5
